CheckWX is a tool to help pilots better visualize weather data.  It is not intended as a substitute for an official pre-flight weather briefing.

08:02:58 UTC

KISN TAF
Sloulin Field International Airport
Williston, North Dakota, USA
KISN 190534Z 1906/2006 33005KT P6SM SCT090 FM191800 26012G20KT P6SM BKN080 FM200200 27007KT P6SM SCT200

Mar-19@
06:00 UTC

Mar-19 @ 06:00 UTC

Mar-19@
18:00 UTC

Mar-19 @ 18:00 UTC

KISN 190534Z 1906/2006 33005KT P6SM SCT090
Wind
  • 330° at 5 KTS
Cloud Levels
  • Scattered at 9,000' AGL

Mar-19@
18:00 UTC

Mar-19 @ 18:00 UTC

Mar-20@
02:00 UTC

Mar-20 @ 02:00 UTC

FM191800 26012G20KT P6SM BKN080

From

From Standard forecast or significant change

Wind
  • 260° at 12 KTS
  • {Gusting to 20 KTS
Cloud Levels
  • Broken at 8,000' AGL

Mar-20@
02:00 UTC

Mar-20 @ 02:00 UTC

Mar-20@
06:00 UTC

Mar-20 @ 06:00 UTC

FM200200 27007KT P6SM SCT200

From

From Standard forecast or significant change

Wind
  • 270° at 7 KTS
Cloud Levels
  • Scattered at 20,000' AGL